createdAt,value
2023-03-26T00:02:08.459Z,6.44
2023-03-26T00:04:35.000Z,6.41
2023-03-26T00:07:01.494Z,6.28
2023-03-26T00:09:28.713Z,6.00
2023-03-26T00:11:55.664Z,6.42
2023-03-26T00:14:22.130Z,6.65
2023-03-26T00:16:48.560Z,6.17
2023-03-26T00:19:14.990Z,6.59
2023-03-26T00:21:41.447Z,6.39
2023-03-26T00:24:07.850Z,6.49
2023-03-26T00:26:34.585Z,5.95
2023-03-26T00:29:01.165Z,6.34
2023-03-26T00:31:27.803Z,6.41
2023-03-26T00:33:54.266Z,6.60
2023-03-26T00:36:20.795Z,6.76
2023-03-26T00:38:47.250Z,6.39
2023-03-26T00:41:13.897Z,6.54
2023-03-26T00:43:40.357Z,6.50
2023-03-26T00:46:06.826Z,6.07
2023-03-26T00:48:44.554Z,6.01
2023-03-26T00:51:11.899Z,6.32
2023-03-26T00:53:38.428Z,6.32
2023-03-26T00:56:04.884Z,6.45
2023-03-26T00:58:31.282Z,6.54
2023-03-26T01:00:57.728Z,6.89
2023-03-26T01:03:26.902Z,6.27
2023-03-26T01:05:54.464Z,6.40
2023-03-26T01:08:21.234Z,6.41
2023-03-26T01:10:47.681Z,6.31
2023-03-26T01:13:14.171Z,6.30
2023-03-26T01:15:40.638Z,6.36
2023-03-26T01:18:07.101Z,6.53
2023-03-26T01:20:33.617Z,6.60
2023-03-26T01:23:00.052Z,6.36
2023-03-26T01:25:26.525Z,6.65
2023-03-26T01:27:52.992Z,6.68
2023-03-26T01:30:20.113Z,6.65
2023-03-26T01:32:46.632Z,6.51
2023-03-26T01:35:13.184Z,6.33
2023-03-26T01:37:39.639Z,6.36
2023-03-26T01:40:06.084Z,6.31
2023-03-26T01:42:32.562Z,5.98
2023-03-26T01:44:59.025Z,6.34
2023-03-26T01:47:25.493Z,6.39
2023-03-26T01:49:52.038Z,6.18
2023-03-26T01:52:18.465Z,6.20
2023-03-26T01:54:44.925Z,6.38
2023-03-26T01:57:11.359Z,6.22
2023-03-26T01:59:38.047Z,6.60
2023-03-26T02:02:04.566Z,6.52
2023-03-26T02:04:31.025Z,6.58
2023-03-26T02:06:57.471Z,6.37
2023-03-26T02:09:23.942Z,6.46
2023-03-26T02:11:50.642Z,6.71
2023-03-26T02:14:17.097Z,6.45
2023-03-26T02:16:43.572Z,5.91
2023-03-26T02:19:10.074Z,5.84
2023-03-26T02:21:36.591Z,6.45
2023-03-26T02:24:04.073Z,6.31
2023-03-26T02:26:30.950Z,6.38
2023-03-26T02:28:57.460Z,6.72
2023-03-26T02:31:23.976Z,6.62
2023-03-26T02:33:50.524Z,6.33
2023-03-26T02:36:17.006Z,6.59
2023-03-26T02:38:43.466Z,6.29
2023-03-26T02:41:09.946Z,6.02
2023-03-26T02:43:36.852Z,6.24
2023-03-26T02:46:03.341Z,6.42
2023-03-26T02:48:30.029Z,6.47
2023-03-26T02:50:56.523Z,6.69
2023-03-26T02:53:23.028Z,6.62
2023-03-26T02:55:49.462Z,6.29
2023-03-26T02:58:16.541Z,6.41
2023-03-26T03:00:43.069Z,6.42
2023-03-26T03:03:09.759Z,6.50
2023-03-26T03:05:36.421Z,6.28
2023-03-26T03:08:02.834Z,6.05
2023-03-26T03:10:29.273Z,6.20
2023-03-26T03:12:55.829Z,6.11
2023-03-26T03:15:22.324Z,6.27
2023-03-26T03:17:48.861Z,6.58
2023-03-26T03:20:15.562Z,6.63
2023-03-26T03:22:42.119Z,6.72
2023-03-26T03:25:08.544Z,6.20
2023-03-26T03:27:34.995Z,6.38
2023-03-26T03:30:01.473Z,6.42
2023-03-26T03:32:28.039Z,6.34
2023-03-26T03:34:54.418Z,6.26
2023-03-26T03:37:20.831Z,6.42
2023-03-26T03:39:47.317Z,6.58
2023-03-26T03:42:13.806Z,6.31
2023-03-26T03:44:40.252Z,5.95
2023-03-26T03:47:06.677Z,6.44
2023-03-26T03:49:33.069Z,6.35
2023-03-26T03:51:59.551Z,6.14
2023-03-26T03:54:26.425Z,6.25
2023-03-26T03:56:52.868Z,6.36
2023-03-26T03:59:19.308Z,6.47
2023-03-26T04:01:45.727Z,6.75
2023-03-26T04:04:12.226Z,6.55
2023-03-26T04:06:38.841Z,6.73
2023-03-26T04:09:05.256Z,6.76
2023-03-26T04:11:31.776Z,6.78
2023-03-26T04:13:59.220Z,6.71
2023-03-26T04:16:25.754Z,6.71
2023-03-26T04:18:52.645Z,6.80
2023-03-26T04:21:19.199Z,6.49
2023-03-26T04:23:45.773Z,6.40
2023-03-26T04:26:12.298Z,6.51
2023-03-26T04:28:38.793Z,6.48
2023-03-26T04:31:05.625Z,6.45
2023-03-26T04:33:32.515Z,6.73
2023-03-26T04:35:59.028Z,6.18
2023-03-26T04:38:26.153Z,6.39
2023-03-26T04:40:52.662Z,6.42
2023-03-26T04:43:19.217Z,6.90
2023-03-26T04:45:45.674Z,6.84
2023-03-26T04:48:12.112Z,6.91
2023-03-26T04:50:39.081Z,7.12
2023-03-26T04:53:06.551Z,7.17
2023-03-26T04:55:33.652Z,7.05
2023-03-26T04:58:00.159Z,7.08
2023-03-26T05:00:26.793Z,7.24
2023-03-26T05:02:55.656Z,7.19
2023-03-26T05:05:22.122Z,6.97
2023-03-26T05:07:48.545Z,6.89
2023-03-26T05:10:15.012Z,6.78
2023-03-26T05:12:41.714Z,7.25
2023-03-26T05:15:08.178Z,6.93
2023-03-26T05:17:37.037Z,7.25
2023-03-26T05:20:03.529Z,7.24
2023-03-26T05:22:30.834Z,7.17
2023-03-26T05:24:57.588Z,7.07
2023-03-26T05:27:24.478Z,7.00
2023-03-26T05:29:53.280Z,6.76
2023-03-26T05:32:19.690Z,7.18
2023-03-26T05:34:46.164Z,7.40
2023-03-26T05:37:12.846Z,7.62
2023-03-26T05:39:39.943Z,7.73
2023-03-26T05:42:06.359Z,7.57
2023-03-26T05:44:32.868Z,7.71
2023-03-26T05:46:59.474Z,7.60
2023-03-26T05:49:25.996Z,7.80
2023-03-26T05:51:54.336Z,7.14
2023-03-26T05:54:21.827Z,7.32
2023-03-26T05:56:48.385Z,7.52
2023-03-26T05:59:14.870Z,7.64
2023-03-26T06:01:41.310Z,7.45
2023-03-26T06:04:07.842Z,7.37
2023-03-26T06:06:34.626Z,7.28
2023-03-26T06:09:02.847Z,7.44
2023-03-26T06:11:29.509Z,7.31
2023-03-26T06:13:55.949Z,7.23
2023-03-26T06:16:26.978Z,7.26
2023-03-26T06:18:56.952Z,7.39
2023-03-26T06:21:24.053Z,7.52
2023-03-26T06:23:50.522Z,7.56
2023-03-26T06:26:17.328Z,7.47
2023-03-26T06:28:43.804Z,7.78
2023-03-26T06:31:10.512Z,7.85
2023-03-26T06:33:37.249Z,7.60
2023-03-26T06:36:03.641Z,8.00
2023-03-26T06:38:30.125Z,8.27
2023-03-26T06:40:57.219Z,8.33
2023-03-26T06:43:23.885Z,8.29
2023-03-26T06:45:50.363Z,8.37
2023-03-26T06:48:16.817Z,8.49
2023-03-26T06:50:43.563Z,8.63
2023-03-26T06:53:10.573Z,8.80
2023-03-26T06:55:37.099Z,8.80
2023-03-26T06:58:04.398Z,8.61
2023-03-26T07:00:30.983Z,8.83
2023-03-26T07:02:57.718Z,8.85
2023-03-26T07:05:24.517Z,8.80
2023-03-26T07:07:50.993Z,8.87
2023-03-26T07:10:17.777Z,8.73
2023-03-26T07:12:44.186Z,8.22
2023-03-26T07:15:10.860Z,8.44
2023-03-26T07:17:37.566Z,8.72
2023-03-26T07:20:04.112Z,8.38
2023-03-26T07:22:30.736Z,8.62
2023-03-26T07:24:57.343Z,8.88
2023-03-26T07:27:23.776Z,8.62
2023-03-26T07:29:51.282Z,8.29
2023-03-26T07:32:19.137Z,8.57
2023-03-26T07:34:45.883Z,8.91
2023-03-26T07:37:12.294Z,9.12
2023-03-26T07:39:38.798Z,8.83
2023-03-26T07:42:05.241Z,8.90
2023-03-26T07:44:33.043Z,8.98
2023-03-26T07:47:00.531Z,8.79
2023-03-26T07:49:27.408Z,8.75
2023-03-26T07:51:53.901Z,8.80
2023-03-26T07:54:20.772Z,8.86
2023-03-26T07:56:48.145Z,8.72
2023-03-26T07:59:14.596Z,8.69
2023-03-26T08:01:40.965Z,8.57
2023-03-26T08:04:24.585Z,8.79
2023-03-26T08:06:53.078Z,8.97
2023-03-26T08:09:19.660Z,9.01
2023-03-26T08:11:46.135Z,9.16
2023-03-26T08:14:13.626Z,8.75
2023-03-26T08:16:42.015Z,8.43
2023-03-26T08:19:08.586Z,8.89
2023-03-26T08:21:35.076Z,8.95
2023-03-26T08:24:01.851Z,8.96
2023-03-26T08:26:28.661Z,9.17
2023-03-26T08:28:55.447Z,8.71
2023-03-26T08:31:23.088Z,8.83
2023-03-26T08:33:50.081Z,9.13
2023-03-26T08:36:16.499Z,9.16
2023-03-26T08:38:45.146Z,9.38
2023-03-26T08:41:13.213Z,9.07
2023-03-26T08:43:42.789Z,9.63
2023-03-26T08:46:09.341Z,9.35
2023-03-26T08:48:35.995Z,9.05
2023-03-26T08:51:02.463Z,9.06
2023-03-26T08:53:28.932Z,9.60
2023-03-26T08:55:55.320Z,9.78
2023-03-26T08:58:21.849Z,9.80
2023-03-26T09:00:48.871Z,9.88
2023-03-26T09:03:15.344Z,9.61
2023-03-26T09:05:42.253Z,9.90
2023-03-26T09:08:08.638Z,9.83
2023-03-26T09:10:35.577Z,10.10
2023-03-26T09:13:02.002Z,10.15
2023-03-26T09:15:28.426Z,10.18
2023-03-26T09:17:56.660Z,10.11
2023-03-26T09:20:24.427Z,10.32
2023-03-26T09:22:50.809Z,10.14
2023-03-26T09:25:17.640Z,10.54
2023-03-26T09:27:44.031Z,10.38
2023-03-26T09:30:10.467Z,10.22
2023-03-26T09:32:36.933Z,10.60
2023-03-26T09:35:03.688Z,10.83
2023-03-26T09:37:30.086Z,10.64
2023-03-26T09:39:56.582Z,11.01
2023-03-26T09:42:23.006Z,10.73
2023-03-26T09:44:49.531Z,10.50
2023-03-26T09:47:15.990Z,10.68
2023-03-26T09:49:42.502Z,11.07
2023-03-26T09:52:08.994Z,11.03
2023-03-26T09:54:35.402Z,11.14
2023-03-26T09:57:02.785Z,11.48
2023-03-26T09:59:29.190Z,11.23
2023-03-26T10:01:55.841Z,11.39
2023-03-26T10:04:22.323Z,11.57
2023-03-26T10:06:50.813Z,11.56
2023-03-26T10:09:17.454Z,11.54
2023-03-26T10:11:44.947Z,11.69
2023-03-26T10:14:11.447Z,11.77
2023-03-26T10:16:38.022Z,11.78
2023-03-26T10:19:04.490Z,11.32
2023-03-26T10:21:31.073Z,11.49
2023-03-26T10:23:57.434Z,11.54
2023-03-26T10:26:23.789Z,11.78
2023-03-26T10:28:52.566Z,11.75
2023-03-26T10:31:19.156Z,11.50
2023-03-26T10:33:45.860Z,11.63
2023-03-26T10:36:12.284Z,11.85
2023-03-26T10:38:38.734Z,12.17
2023-03-26T10:41:05.165Z,12.26
2023-03-26T10:43:31.659Z,12.41
2023-03-26T10:45:58.071Z,12.25
2023-03-26T10:48:24.500Z,12.42
2023-03-26T10:50:50.988Z,12.48
2023-03-26T10:53:17.510Z,12.60
2023-03-26T10:55:43.956Z,12.62
2023-03-26T10:58:11.605Z,12.67
2023-03-26T11:00:38.018Z,12.75
2023-03-26T11:03:04.449Z,12.86
2023-03-26T11:05:31.557Z,12.76
2023-03-26T11:07:58.294Z,12.62
2023-03-26T11:10:25.058Z,12.41
2023-03-26T11:12:51.592Z,12.49
2023-03-26T11:15:19.025Z,12.56
2023-03-26T11:17:46.071Z,12.50
2023-03-26T11:20:12.615Z,12.84
2023-03-26T11:22:39.154Z,12.87
2023-03-26T11:25:05.748Z,13.13
2023-03-26T11:27:32.256Z,13.15
2023-03-26T11:29:58.958Z,13.30
2023-03-26T11:32:25.962Z,13.47
2023-03-26T11:34:52.463Z,13.57
2023-03-26T11:37:19.071Z,13.68
2023-03-26T11:39:45.626Z,13.87
2023-03-26T11:42:13.373Z,13.94
2023-03-26T11:44:40.063Z,13.97
2023-03-26T11:47:06.518Z,14.06
2023-03-26T11:49:33.973Z,14.04
2023-03-26T11:52:00.676Z,14.05
2023-03-26T11:54:27.613Z,14.10
2023-03-26T11:57:05.829Z,14.23
2023-03-26T11:59:39.245Z,14.19
2023-03-26T12:02:12.202Z,14.15
2023-03-26T12:04:38.958Z,14.16
2023-03-26T12:07:05.489Z,14.19
2023-03-26T12:09:32.282Z,14.18
2023-03-26T12:11:59.168Z,14.24
2023-03-26T12:14:25.544Z,13.89
2023-03-26T12:16:52.868Z,13.99
2023-03-26T12:19:21.989Z,13.96
2023-03-26T12:21:48.505Z,13.91
2023-03-26T12:24:16.269Z,13.90
2023-03-26T12:26:42.745Z,13.86
2023-03-26T12:29:09.349Z,13.84
2023-03-26T12:31:39.832Z,13.84
2023-03-26T12:34:06.951Z,13.73
2023-03-26T12:36:33.455Z,13.76
2023-03-26T12:39:16.526Z,13.73
2023-03-26T12:43:53.513Z,13.72
2023-03-26T12:44:53.177Z,13.84
2023-03-26T12:47:58.717Z,13.83
2023-03-26T12:50:06.046Z,13.88
2023-03-26T12:52:32.673Z,13.87
2023-03-26T12:55:01.150Z,13.85
2023-03-26T12:57:27.726Z,14.10
2023-03-26T12:59:54.172Z,14.29
2023-03-26T13:02:20.953Z,14.43
2023-03-26T13:05:02.384Z,14.32
2023-03-26T13:07:31.847Z,14.25
2023-03-26T13:09:58.287Z,14.36
2023-03-26T13:12:24.865Z,14.44
2023-03-26T13:14:51.922Z,14.48
2023-03-26T13:17:18.422Z,14.47
2023-03-26T13:19:44.899Z,14.42
2023-03-26T13:22:11.603Z,14.11
2023-03-26T13:24:38.402Z,14.14
2023-03-26T13:27:06.420Z,14.15
2023-03-26T13:29:33.682Z,14.04
2023-03-26T13:32:00.600Z,13.81
2023-03-26T13:34:34.574Z,13.84
2023-03-26T13:37:02.289Z,13.77
2023-03-26T13:39:28.695Z,13.82
2023-03-26T13:41:55.400Z,13.99
2023-03-26T13:44:21.788Z,14.05
2023-03-26T13:46:48.409Z,13.90
2023-03-26T13:49:15.561Z,14.06
2023-03-26T13:51:42.427Z,14.18
2023-03-26T13:54:09.226Z,14.19
2023-03-26T13:56:35.912Z,14.04
2023-03-26T13:59:02.511Z,13.95
2023-03-26T14:01:29.632Z,14.02
2023-03-26T14:03:56.294Z,14.05
2023-03-26T14:06:23.077Z,13.99
2023-03-26T14:08:49.510Z,13.94
2023-03-26T14:11:16.318Z,13.85
2023-03-26T14:13:43.905Z,13.82
2023-03-26T14:16:10.494Z,13.76
2023-03-26T14:18:38.043Z,13.73
2023-03-26T14:21:04.651Z,13.77
2023-03-26T14:23:31.544Z,13.80
2023-03-26T14:25:59.012Z,13.94
2023-03-26T14:28:25.525Z,13.93
2023-03-26T14:30:52.042Z,13.91
2023-03-26T14:33:27.314Z,13.89
2023-03-26T14:35:54.549Z,13.89
2023-03-26T14:38:22.230Z,13.82
2023-03-26T14:40:48.963Z,13.84
2023-03-26T14:43:16.140Z,13.96
2023-03-26T14:45:45.490Z,13.81
2023-03-26T14:48:12.429Z,13.69
2023-03-26T14:50:39.500Z,13.76
2023-03-26T14:53:06.280Z,13.71
2023-03-26T14:55:33.154Z,13.80
2023-03-26T14:57:59.695Z,13.74
2023-03-26T15:00:26.583Z,13.66
2023-03-26T15:02:54.409Z,13.64
2023-03-26T15:05:21.004Z,13.71
2023-03-26T15:07:47.463Z,13.65
2023-03-26T15:10:14.058Z,13.71
2023-03-26T15:12:40.518Z,13.79
2023-03-26T15:15:07.038Z,13.78
2023-03-26T15:17:34.313Z,13.82
2023-03-26T15:20:01.320Z,13.81
2023-03-26T15:22:27.919Z,13.70
2023-03-26T15:24:54.471Z,13.49
2023-03-26T15:27:21.137Z,13.47
2023-03-26T15:29:48.120Z,13.51
2023-03-26T15:32:14.913Z,13.58
2023-03-26T15:34:43.781Z,13.73
2023-03-26T15:37:10.788Z,13.78
2023-03-26T15:39:37.839Z,13.18
2023-03-26T15:42:05.330Z,13.10
2023-03-26T15:44:38.124Z,12.30
2023-03-26T15:47:11.008Z,12.47
2023-03-26T15:49:37.591Z,12.76
2023-03-26T15:52:04.181Z,12.66
2023-03-26T15:54:30.697Z,12.53
2023-03-26T15:56:57.642Z,12.27
2023-03-26T15:59:24.349Z,12.69
2023-03-26T16:01:51.273Z,12.76
2023-03-26T16:04:18.236Z,12.70
2023-03-26T16:06:45.126Z,12.42
2023-03-26T16:09:11.962Z,12.52
2023-03-26T16:11:38.520Z,12.28
2023-03-26T16:14:05.169Z,11.95
2023-03-26T16:16:31.809Z,12.07
2023-03-26T16:18:58.576Z,11.87
2023-03-26T16:21:30.892Z,11.76
2023-03-26T16:23:59.697Z,12.12
2023-03-26T16:26:26.534Z,12.22
2023-03-26T16:28:54.775Z,12.34
2023-03-26T16:31:34.965Z,12.39
2023-03-26T16:34:05.621Z,12.34
2023-03-26T16:36:33.098Z,12.47
2023-03-26T16:39:02.562Z,12.50
2023-03-26T16:41:29.031Z,12.44
2023-03-26T16:46:36.405Z,11.97
2023-03-26T16:49:03.693Z,11.80
2023-03-26T16:51:31.071Z,11.88
2023-03-26T16:53:58.168Z,11.71
2023-03-26T16:56:25.438Z,11.77
2023-03-26T16:58:55.372Z,11.20
2023-03-26T17:01:22.248Z,11.32
2023-03-26T17:03:49.162Z,11.45
2023-03-26T17:06:16.173Z,11.16
2023-03-26T17:08:43.094Z,10.99
2023-03-26T17:11:13.017Z,10.96
2023-03-26T17:13:41.473Z,11.11
2023-03-26T17:16:08.358Z,11.31
2023-03-26T17:18:35.391Z,11.12
2023-03-26T17:21:02.419Z,10.60
2023-03-26T17:23:29.527Z,10.75
2023-03-26T17:25:57.556Z,10.79
2023-03-26T17:28:24.852Z,10.64
2023-03-26T17:30:52.290Z,10.43
2023-03-26T17:33:19.248Z,10.37
2023-03-26T17:35:46.850Z,10.12
2023-03-26T17:38:13.953Z,10.59
2023-03-26T17:40:40.791Z,10.50
2023-03-26T17:43:10.285Z,10.60
2023-03-26T17:45:37.324Z,9.98
2023-03-26T17:48:04.362Z,10.36
2023-03-26T17:50:32.020Z,10.60
2023-03-26T17:52:59.567Z,10.66
2023-03-26T17:55:28.002Z,10.16
2023-03-26T17:57:54.721Z,10.49
2023-03-26T18:00:22.559Z,10.14
2023-03-26T18:02:52.309Z,10.57
2023-03-26T18:05:19.738Z,10.63
2023-03-26T18:07:46.759Z,10.69
2023-03-26T18:10:13.319Z,10.78
2023-03-26T18:12:40.275Z,10.58
2023-03-26T18:15:11.850Z,10.69
2023-03-26T18:17:40.080Z,10.70
2023-03-26T18:20:07.138Z,10.69
2023-03-26T18:22:34.040Z,10.71
2023-03-26T18:25:02.001Z,10.55
2023-03-26T18:27:29.209Z,10.62
2023-03-26T18:30:02.436Z,10.85
2023-03-26T18:32:31.040Z,10.81
2023-03-26T18:34:58.389Z,10.34
2023-03-26T18:37:26.021Z,10.21
2023-03-26T18:39:53.105Z,10.24
2023-03-26T18:42:22.570Z,10.61
2023-03-26T18:44:51.486Z,10.69
2023-03-26T18:47:18.731Z,10.86
2023-03-26T18:49:45.765Z,10.73
2023-03-26T18:52:12.999Z,10.41
2023-03-26T18:54:41.287Z,10.63
2023-03-26T18:57:15.056Z,10.68
2023-03-26T18:59:43.791Z,10.34
2023-03-26T19:02:10.945Z,10.07
2023-03-26T19:04:38.182Z,10.33
2023-03-26T19:07:05.176Z,10.26
2023-03-26T19:09:32.718Z,10.44
2023-03-26T19:12:01.852Z,10.32
2023-03-26T19:14:29.368Z,10.33
2023-03-26T19:16:57.524Z,10.21
2023-03-26T19:19:25.387Z,10.38
2023-03-26T19:21:52.492Z,10.23
2023-03-26T19:24:19.075Z,10.12
2023-03-26T19:26:45.971Z,10.09
2023-03-26T19:29:16.411Z,10.40
2023-03-26T19:31:43.806Z,10.21
2023-03-26T19:34:10.845Z,10.26
2023-03-26T19:36:38.286Z,10.20
2023-03-26T19:39:06.562Z,10.06
2023-03-26T19:41:34.455Z,10.22
2023-03-26T19:44:00.991Z,10.13
2023-03-26T19:46:29.051Z,9.92
2023-03-26T19:49:01.782Z,10.07
2023-03-26T19:51:28.971Z,9.97
2023-03-26T19:53:56.609Z,10.22
2023-03-26T19:56:23.707Z,10.14
2023-03-26T19:58:50.720Z,10.19
2023-03-26T20:01:17.951Z,9.84
2023-03-26T20:03:44.994Z,10.11
2023-03-26T20:06:12.033Z,10.03
2023-03-26T20:08:39.432Z,10.15
2023-03-26T20:11:06.928Z,10.11
2023-03-26T20:13:34.760Z,10.23
2023-03-26T20:16:06.069Z,9.86
2023-03-26T20:18:33.023Z,9.79
2023-03-26T20:21:01.095Z,10.16
2023-03-26T20:23:27.537Z,10.21
2023-03-26T20:25:57.643Z,10.17
2023-03-26T20:28:24.709Z,10.20
2023-03-26T20:30:51.616Z,10.18
2023-03-26T20:33:18.459Z,10.36
2023-03-26T20:35:45.371Z,10.29
2023-03-26T20:38:12.150Z,10.42
2023-03-26T20:40:39.156Z,10.30
2023-03-26T20:43:05.655Z,10.30
2023-03-26T20:45:33.687Z,10.25
2023-03-26T20:48:01.321Z,10.33
2023-03-26T20:50:28.806Z,10.03
2023-03-26T20:52:55.278Z,10.06
2023-03-26T20:55:24.010Z,9.61
2023-03-26T20:57:50.569Z,9.98
2023-03-26T21:00:17.162Z,9.93
2023-03-26T21:02:44.023Z,9.54
2023-03-26T21:05:10.807Z,9.72
2023-03-26T21:07:39.071Z,9.90
2023-03-26T21:10:05.579Z,10.17
2023-03-26T21:12:32.324Z,10.33
2023-03-26T21:15:01.590Z,10.29
2023-03-26T21:17:30.034Z,10.03
2023-03-26T21:19:56.445Z,9.65
2023-03-26T21:22:23.123Z,9.71
2023-03-26T21:24:50.681Z,9.73
2023-03-26T21:27:19.162Z,9.81
2023-03-26T21:29:45.702Z,9.03
2023-03-26T21:32:12.087Z,9.50
2023-03-26T21:34:42.073Z,9.16
2023-03-26T21:37:14.644Z,9.59
2023-03-26T21:39:41.645Z,9.96
2023-03-26T21:42:08.116Z,10.02
2023-03-26T21:44:34.565Z,10.02
2023-03-26T21:47:01.607Z,10.01
2023-03-26T21:49:28.030Z,9.95
2023-03-26T21:51:54.472Z,9.44
2023-03-26T21:54:21.486Z,9.31
2023-03-26T21:56:48.033Z,9.67
2023-03-26T21:59:17.714Z,9.82
2023-03-26T22:01:44.216Z,9.86
2023-03-26T22:04:10.906Z,9.71
2023-03-26T22:06:37.774Z,9.68
2023-03-26T22:09:04.237Z,9.29
2023-03-26T22:11:31.139Z,9.26
2023-03-26T22:13:57.560Z,9.29
2023-03-26T22:16:24.250Z,9.22
2023-03-26T22:18:50.706Z,9.56
2023-03-26T22:21:17.108Z,9.30
2023-03-26T22:23:43.592Z,9.37
2023-03-26T22:26:10.649Z,9.31
2023-03-26T22:28:37.263Z,9.40
2023-03-26T22:31:03.829Z,9.80
2023-03-26T22:33:30.534Z,9.70
2023-03-26T22:35:56.984Z,9.33
2023-03-26T22:38:23.977Z,9.27
2023-03-26T22:40:50.314Z,9.60
2023-03-26T22:43:16.767Z,9.06
2023-03-26T22:45:43.213Z,9.59
2023-03-26T22:48:10.798Z,9.62
2023-03-26T22:50:37.268Z,9.40
2023-03-26T22:53:04.056Z,9.48
2023-03-26T22:55:30.673Z,9.66
2023-03-26T22:57:57.104Z,9.68
2023-03-26T23:00:23.993Z,9.47
2023-03-26T23:02:50.556Z,9.28
2023-03-26T23:05:16.979Z,9.18
2023-03-26T23:07:43.407Z,9.06
2023-03-26T23:10:09.855Z,9.25
2023-03-26T23:12:36.380Z,9.30
2023-03-26T23:15:03.356Z,9.36
2023-03-26T23:17:30.035Z,9.34
2023-03-26T23:19:56.506Z,9.68
2023-03-26T23:22:23.000Z,9.83
2023-03-26T23:24:49.396Z,9.38
2023-03-26T23:27:15.964Z,8.97
2023-03-26T23:29:49.216Z,8.90
2023-03-26T23:32:24.246Z,9.06
2023-03-26T23:34:52.166Z,8.92
2023-03-26T23:37:19.494Z,8.86
2023-03-26T23:39:46.556Z,8.99
2023-03-26T23:42:13.034Z,9.13
2023-03-26T23:44:39.733Z,9.33
2023-03-26T23:47:06.235Z,9.53
2023-03-26T23:49:32.705Z,9.51
2023-03-26T23:51:59.356Z,9.67
2023-03-26T23:54:25.763Z,9.67
2023-03-26T23:56:52.259Z,9.78
2023-03-26T23:59:18.719Z,9.43
